Time;durP1;ratioP1;P1;durP2;ratioP2;P2;SDS_P1;SDS_P2;PMS_P1;PMS_P2;Temp;Humidity;BMP_temperature;BMP_pressure;BME280_temperature;BME280_humidity;BME280_pressure;Samples;Min_cycle;Max_cycle;Signal;HPM_P1;HPM_P2
2023/05/12 00:03:07;;;;;;;;;;;;;;;;;;10400185;28;20452;-77
2023/05/12 00:08:10;;;;;;;14.95;4.75;;;;;;;;;;10398913;28;19931;-78
2023/05/12 00:13:14;;;;;;;19.38;5.57;;;;;;;;;;10394889;28;20054;-76
2023/05/12 00:18:17;;;;;;;24.75;6.50;;;;;;;;;;10399617;28;20378;-76
2023/05/12 00:23:20;;;;;;;24.73;6.97;;;;;;;;;;10402045;28;20517;-76
2023/05/12 00:28:24;;;;;;;22.70;6.80;;;;;;;;;;10402520;28;20041;-76
2023/05/12 00:33:26;;;;;;;;;;;;;;;;;;10402482;28;20045;-75
2023/05/12 00:38:29;;;;;;;23.88;5.97;;;;;;;;;;10399114;28;19925;-76
2023/05/12 00:43:33;;;;;;;15.20;5.30;;;;;;;;;;10405205;28;20038;-76
2023/05/12 00:48:36;;;;;;;2.03;0.70;;;;;;;;;;10405580;28;20052;-77
2023/05/12 00:53:38;;;;;;;10.23;4.55;;;;;;;;;;10408089;28;20099;-77
2023/05/12 00:58:53;;;;;;;11.87;4.83;;;;;;;;;;10403162;28;20038;-77
2023/05/12 01:03:55;;;;;;;;;;;;;;;;;;10408537;28;20045;-77
2023/05/12 01:08:58;;;;;;;11.60;4.22;;;;;;;;;;10400997;28;20340;-77
2023/05/12 01:14:03;;;;;;;9.30;4.50;;;;;;;;;;10402226;28;20389;-75
2023/05/12 01:19:07;;;;;;;10.05;3.95;;;;;;;;;;10403957;28;20128;-76
2023/05/12 01:24:12;;;;;;;13.52;5.30;;;;;;;;;;10402535;28;20128;-76
2023/05/12 01:29:16;;;;;;;14.27;4.90;;;;;;;;;;10410677;28;20045;-75
2023/05/12 01:34:19;;;;;;;;;;;;;;;;;;10406874;28;20087;-75
2023/05/12 01:39:21;;;;;;;19.63;7.00;;;;;;;;;;10404606;28;20412;-78
2023/05/12 01:44:26;;;;;;;19.73;6.10;;;;;;;;;;10400097;28;20069;-75
2023/05/12 01:49:28;;;;;;;;;;;;;;;;;;10399465;28;20041;-75
2023/05/12 01:54:31;;;;;;;19.85;6.93;;;;;;;;;;10397881;28;19921;-75
2023/05/12 01:59:34;;;;;;;20.83;6.90;;;;;;;;;;10399492;28;20045;-75
2023/05/12 02:04:37;;;;;;;;;;;;;;;;;;10403626;28;20041;-76
2023/05/12 02:09:39;;;;;;;24.38;6.75;;;;;;;;;;10414292;28;20846;-75
2023/05/12 02:14:43;;;;;;;27.25;8.48;;;;;;;;;;10400580;28;20041;-75
2023/05/12 02:19:46;;;;;;;;;;;;;;;;;;10404581;28;20367;-75
2023/05/12 02:24:49;;;;;;;33.90;7.68;;;;;;;;;;10401897;28;20267;-76
2023/05/12 02:29:52;;;;;;;25.52;7.10;;;;;;;;;;10395936;28;20053;-75
2023/05/12 02:34:55;;;;;;;;;;;;;;;;;;10403028;28;20121;-75
2023/05/12 02:39:57;;;;;;;28.15;7.90;;;;;;;;;;10400527;28;19924;-76
2023/05/12 02:45:02;;;;;;;28.45;8.27;;;;;;;;;;10398102;28;20049;-76
2023/05/12 02:50:05;;;;;;;31.67;8.35;;;;;;;;;;10398164;28;20045;-76
2023/05/12 02:55:08;;;;;;;28.23;7.77;;;;;;;;;;10400291;28;20510;-76
2023/05/12 03:00:12;;;;;;;33.30;7.95;;;;;;;;;;10399519;28;20045;-75
2023/05/12 03:05:15;;;;;;;15.05;5.32;;;;;;;;;;10400184;28;20045;-77
2023/05/12 03:10:17;;;;;;;27.65;7.78;;;;;;;;;;10397868;28;20485;-76
2023/05/12 03:15:22;;;;;;;19.13;6.47;;;;;;;;;;10398201;28;20052;-76
2023/05/12 03:20:25;;;;;;;19.70;6.95;;;;;;;;;;10401882;28;20045;-75
2023/05/12 03:25:27;;;;;;;15.85;5.70;;;;;;;;;;10398733;28;20045;-76
2023/05/12 03:30:32;;;;;;;13.38;5.20;;;;;;;;;;10401055;28;20045;-76
2023/05/12 03:35:35;;;;;;;3.65;1.70;;;;;;;;;;10396777;28;20045;-76
2023/05/12 03:40:38;;;;;;;20.40;6.97;;;;;;;;;;10399042;28;20498;-77
2023/05/12 03:45:42;;;;;;;14.38;4.63;;;;;;;;;;10395651;28;20041;-77
2023/05/12 03:50:45;;;;;;;21.85;7.45;;;;;;;;;;10392154;28;20046;-76
2023/05/12 03:55:48;;;;;;;14.97;5.47;;;;;;;;;;10401681;28;20084;-77
2023/05/12 04:00:56;;;;;;;24.03;6.87;;;;;;;;;;10406482;28;20121;-76
2023/05/12 04:05:59;;;;;;;12.85;4.45;;;;;;;;;;10395487;28;20103;-76
2023/05/12 04:11:02;;;;;;;26.02;7.60;;;;;;;;;;10403858;28;20064;-76
2023/05/12 04:16:07;;;;;;;10.48;4.45;;;;;;;;;;10404227;28;20053;-76
2023/05/12 04:21:10;;;;;;;11.63;4.28;;;;;;;;;;10408734;28;20152;-76
2023/05/12 04:26:12;;;;;;;13.60;5.22;;;;;;;;;;10404575;28;20057;-76
2023/05/12 04:31:17;;;;;;;13.93;4.73;;;;;;;;;;10407331;28;20048;-76
2023/05/12 04:36:22;;;;;;;11.30;3.97;;;;;;;;;;10405211;28;20128;-78
2023/05/12 04:41:27;;;;;;;7.13;3.10;;;;;;;;;;10401807;28;20086;-76
2023/05/12 04:46:31;;;;;;;12.03;3.87;;;;;;;;;;10405138;28;20064;-77
2023/05/12 04:51:40;;;;;;;11.95;3.95;;;;;;;;;;10404008;28;20183;-76
2023/05/12 04:56:43;;;;;;;6.85;2.15;;;;;;;;;;10406449;28;20034;-75
2023/05/12 05:01:47;;;;;;;10.77;3.47;;;;;;;;;;10405247;28;20037;-76
2023/05/12 05:06:50;;;;;;;7.20;2.83;;;;;;;;;;10405067;28;20037;-75
2023/05/12 05:11:53;;;;;;;8.55;2.88;;;;;;;;;;10404481;28;20041;-75
2023/05/12 05:16:58;;;;;;;6.95;2.78;;;;;;;;;;10404139;28;20410;-76
2023/05/12 05:22:02;;;;;;;10.43;3.35;;;;;;;;;;10403560;28;20033;-77
2023/05/12 05:27:05;;;;;;;10.93;4.00;;;;;;;;;;10394977;28;20104;-76
2023/05/12 05:32:09;;;;;;;8.23;3.70;;;;;;;;;;10405530;28;20132;-76
2023/05/12 05:37:12;;;;;;;9.25;4.00;;;;;;;;;;10410459;28;20057;-75
2023/05/12 05:42:16;;;;;;;8.40;3.53;;;;;;;;;;10412899;28;20033;-75
2023/05/12 05:47:20;;;;;;;9.65;3.92;;;;;;;;;;10398816;28;20442;-75
2023/05/12 05:52:23;;;;;;;9.88;4.03;;;;;;;;;;10406870;28;20161;-76
2023/05/12 05:57:27;;;;;;;12.73;4.43;;;;;;;;;;10399637;28;20522;-77
2023/05/12 06:02:32;;;;;;;9.13;3.90;;;;;;;;;;10399919;28;20051;-76
2023/05/12 06:07:34;;;;;;;10.20;4.60;;;;;;;;;;10408688;28;20557;-75
2023/05/12 06:12:39;;;;;;;10.23;4.53;;;;;;;;;;10399906;28;20390;-78
2023/05/12 06:17:43;;;;;;;9.10;4.10;;;;;;;;;;10398123;28;20049;-79
2023/05/12 06:22:46;;;;;;;8.85;4.03;;;;;;;;;;10399910;28;20037;-75
2023/05/12 06:27:50;;;;;;;9.37;4.27;;;;;;;;;;10405220;28;20577;-76
2023/05/12 06:32:54;;;;;;;4.90;2.50;;;;;;;;;;10398318;28;20071;-74
2023/05/12 06:37:57;;;;;;;3.85;1.90;;;;;;;;;;10395233;28;20049;-78
2023/05/12 06:43:00;;;;;;;4.55;2.75;;;;;;;;;;10401877;28;20029;-76
2023/05/12 06:48:04;;;;;;;4.90;2.53;;;;;;;;;;10401086;28;20103;-77
2023/05/12 06:53:08;;;;;;;7.65;3.47;;;;;;;;;;10393970;28;20073;-77
2023/05/12 06:58:10;;;;;;;7.65;3.88;;;;;;;;;;10396201;28;20045;-77
2023/05/12 07:03:14;;;;;;;6.88;3.00;;;;;;;;;;10395819;28;20200;-77
2023/05/12 07:08:17;;;;;;;6.32;3.10;;;;;;;;;;10397156;28;20534;-78
2023/05/12 07:13:21;;;;;;;4.10;2.28;;;;;;;;;;10395012;28;20052;-77
2023/05/12 07:18:25;;;;;;;7.40;3.03;;;;;;;;;;10396281;28;20046;-77
2023/05/12 07:23:28;;;;;;;5.85;2.50;;;;;;;;;;10393227;28;20320;-76
2023/05/12 07:28:34;;;;;;;4.20;2.10;;;;;;;;;;10395586;28;20064;-77
2023/05/12 07:33:38;;;;;;;3.63;1.73;;;;;;;;;;10393912;28;20091;-76
2023/05/12 07:38:41;;;;;;;4.57;1.90;;;;;;;;;;10393686;28;20083;-77
2023/05/12 07:43:44;;;;;;;5.13;2.33;;;;;;;;;;10394737;28;20490;-76
2023/05/12 07:48:49;;;;;;;5.85;2.58;;;;;;;;;;10390226;28;20053;-79
2023/05/12 07:53:54;;;;;;;5.75;2.50;;;;;;;;;;10387883;28;20532;-77
2023/05/12 07:58:56;;;;;;;4.57;2.33;;;;;;;;;;10390626;28;20041;-78
2023/05/12 08:04:00;;;;;;;5.63;2.95;;;;;;;;;;10389890;28;20048;-79
2023/05/12 08:09:03;;;;;;;8.70;4.70;;;;;;;;;;10390058;28;20818;-78
2023/05/12 08:14:06;;;;;;;5.53;2.80;;;;;;;;;;10387021;28;20483;-78
2023/05/12 08:19:10;;;;;;;4.88;2.33;;;;;;;;;;10389757;28;20053;-77
2023/05/12 08:24:13;;;;;;;5.18;2.67;;;;;;;;;;10387088;28;20876;-77
2023/05/12 08:29:15;;;;;;;4.28;2.20;;;;;;;;;;10389721;28;20041;-77
2023/05/12 08:34:19;;;;;;;1.60;1.23;;;;;;;;;;10389116;28;20426;-76
2023/05/12 08:39:22;;;;;;;4.07;2.40;;;;;;;;;;10390032;28;20049;-79
2023/05/12 08:44:25;;;;;;;4.20;1.95;;;;;;;;;;10389868;28;20392;-78
2023/05/12 08:49:31;;;;;;;3.50;1.80;;;;;;;;;;10390190;28;20045;-77
2023/05/12 08:54:35;;;;;;;2.63;1.77;;;;;;;;;;10392247;28;20688;-77
2023/05/12 08:59:54;;;;;;;1.85;1.30;;;;;;;;;;10392730;28;20182;-78
2023/05/12 09:04:58;;;;;;;2.33;1.45;;;;;;;;;;10400195;28;20045;-77
2023/05/12 09:10:03;;;;;;;2.42;1.70;;;;;;;;;;10387751;28;20052;-76
2023/05/12 09:15:07;;;;;;;3.17;1.50;;;;;;;;;;10384601;28;20099;-76
2023/05/12 09:20:15;;;;;;;2.40;1.83;;;;;;;;;;10394665;28;20379;-75
2023/05/12 09:25:32;;;;;;;2.40;1.70;;;;;;;;;;10389067;28;20079;-77
2023/05/12 09:30:37;;;;;;;2.22;1.50;;;;;;;;;;10391242;28;20128;-77
2023/05/12 09:35:41;;;;;;;2.72;1.75;;;;;;;;;;10392007;28;20055;-77
2023/05/12 09:40:45;;;;;;;2.63;1.50;;;;;;;;;;10392953;28;20076;-77
2023/05/12 09:45:49;;;;;;;1.75;1.25;;;;;;;;;;10394639;28;20084;-77
2023/05/12 09:50:53;;;;;;;1.77;1.30;;;;;;;;;;10395799;28;20491;-77
2023/05/12 09:55:56;;;;;;;1.58;1.20;;;;;;;;;;10394302;28;20033;-76
2023/05/12 10:00:58;;;;;;;3.20;1.27;;;;;;;;;;10396435;28;20049;-77
2023/05/12 10:06:27;;;;;;;2.93;0.87;;;;;;;;;;10397014;28;20305;-77
2023/05/12 10:11:29;;;;;;;4.50;1.65;;;;;;;;;;10395456;28;20334;-76
2023/05/12 10:16:33;;;;;;;1.10;1.00;;;;;;;;;;10395574;28;20060;-76
2023/05/12 10:21:35;;;;;;;;;;;;;;;;;;10395148;28;20136;-78
2023/05/12 10:26:40;;;;;;;1.70;0.90;;;;;;;;;;10398124;28;19925;-78
2023/05/12 10:31:45;;;;;;;0.50;0.50;;;;;;;;;;10396705;28;20033;-77
2023/05/12 10:36:49;;;;;;;2.08;0.77;;;;;;;;;;10395564;28;20728;-77
2023/05/12 10:42:00;;;;;;;0.68;0.60;;;;;;;;;;10392226;28;20077;-79
2023/05/12 10:47:11;;;;;;;0.45;0.40;;;;;;;;;;10400056;28;20056;-79
2023/05/12 10:52:20;;;;;;;0.93;0.70;;;;;;;;;;10396969;28;20046;-77
2023/05/12 10:57:24;;;;;;;2.15;1.00;;;;;;;;;;10393590;28;20446;-76
2023/05/12 11:02:29;;;;;;;1.50;0.88;;;;;;;;;;10399741;28;20133;-79
2023/05/12 11:07:36;;;;;;;1.10;0.77;;;;;;;;;;10401534;28;20057;-77
2023/05/12 11:12:42;;;;;;;1.48;0.93;;;;;;;;;;10384004;28;20152;-77
2023/05/12 11:17:45;;;;;;;2.35;0.90;;;;;;;;;;10375834;28;20041;-77
2023/05/12 11:22:48;;;;;;;;;;;;;;;;;;10389083;28;20478;-77
2023/05/12 11:27:52;;;;;;;2.70;1.35;;;;;;;;;;10396715;28;19928;-77
2023/05/12 11:33:01;;;;;;;4.50;1.77;;;;;;;;;;10394398;28;20037;-77
2023/05/12 11:38:14;;;;;;;3.50;1.80;;;;;;;;;;10397611;28;20042;-77
2023/05/12 11:43:21;;;;;;;3.37;1.93;;;;;;;;;;10398703;28;20041;-77
2023/05/12 11:48:33;;;;;;;2.15;1.48;;;;;;;;;;10403316;28;20042;-75
2023/05/12 11:53:39;;;;;;;2.22;1.50;;;;;;;;;;10400948;28;20417;-78
2023/05/12 11:58:51;;;;;;;5.60;1.92;;;;;;;;;;10396228;28;20121;-79
2023/05/12 12:03:54;;;;;;;3.38;2.00;;;;;;;;;;10398199;28;20029;-78
2023/05/12 12:08:58;;;;;;;3.38;1.70;;;;;;;;;;10395664;28;20046;-77
2023/05/12 12:14:02;;;;;;;2.80;1.50;;;;;;;;;;10397410;28;20134;-78
2023/05/12 12:19:06;;;;;;;1.83;1.30;;;;;;;;;;10395534;28;20095;-77
2023/05/12 12:24:09;;;;;;;2.53;1.70;;;;;;;;;;10397795;28;20128;-77
2023/05/12 12:29:13;;;;;;;3.07;1.80;;;;;;;;;;10399605;28;20495;-77
2023/05/12 12:34:15;;;;;;;5.18;1.88;;;;;;;;;;10401476;28;20045;-79
2023/05/12 12:39:18;;;;;;;3.88;1.95;;;;;;;;;;10403223;28;20041;-77
2023/05/12 12:44:22;;;;;;;4.03;2.20;;;;;;;;;;10404022;28;20046;-78
2023/05/12 12:49:25;;;;;;;4.28;2.00;;;;;;;;;;10400360;28;20115;-77
2023/05/12 12:54:28;;;;;;;5.50;2.37;;;;;;;;;;10404192;28;20111;-76
2023/05/12 12:59:32;;;;;;;5.75;2.42;;;;;;;;;;10403080;28;20056;-78
2023/05/12 13:04:35;;;;;;;3.95;2.40;;;;;;;;;;10401219;28;20045;-78
2023/05/12 13:09:37;;;;;;;3.53;2.42;;;;;;;;;;10400805;28;20042;-78
2023/05/12 13:14:41;;;;;;;4.97;2.57;;;;;;;;;;10400384;28;20041;-79
2023/05/12 13:19:44;;;;;;;4.45;2.60;;;;;;;;;;10406637;28;20099;-78
2023/05/12 13:24:47;;;;;;;5.25;2.90;;;;;;;;;;10403948;28;20549;-78
2023/05/12 13:29:51;;;;;;;4.83;2.93;;;;;;;;;;10402216;28;20041;-79
2023/05/12 13:34:53;;;;;;;7.72;2.97;;;;;;;;;;10403029;28;20527;-79
2023/05/12 13:39:56;;;;;;;8.87;3.73;;;;;;;;;;10402505;28;20479;-78
2023/05/12 13:45:00;;;;;;;7.43;3.87;;;;;;;;;;10400193;28;20083;-79
2023/05/12 13:50:02;;;;;;;9.10;4.38;;;;;;;;;;10399348;28;20095;-78
2023/05/12 13:55:05;;;;;;;6.03;3.40;;;;;;;;;;10402128;28;20041;-77
2023/05/12 14:00:10;;;;;;;5.38;3.25;;;;;;;;;;10399117;28;20046;-77
2023/05/12 14:05:13;;;;;;;6.88;3.13;;;;;;;;;;10397502;28;20057;-78
2023/05/12 14:10:15;;;;;;;7.27;3.80;;;;;;;;;;10399082;28;20049;-79
2023/05/12 14:15:19;;;;;;;6.40;3.30;;;;;;;;;;10402653;28;20107;-77
2023/05/12 14:20:34;;;;;;;5.95;3.28;;;;;;;;;;10402904;28;20513;-78
2023/05/12 14:25:36;;;;;;;8.50;4.47;;;;;;;;;;10399856;28;20035;-78
2023/05/12 14:30:42;;;;;;;6.43;3.37;;;;;;;;;;10396978;28;20060;-79
2023/05/12 14:35:45;;;;;;;6.28;3.35;;;;;;;;;;10396635;28;20037;-78
2023/05/12 14:41:06;;;;;;;5.88;3.03;;;;;;;;;;10397792;28;20077;-79
2023/05/12 14:46:10;;;;;;;4.95;3.22;;;;;;;;;;10399462;28;20064;-78
2023/05/12 14:51:13;;;;;;;5.60;2.92;;;;;;;;;;10401173;28;20050;-79
2023/05/12 14:56:16;;;;;;;5.28;2.80;;;;;;;;;;10395380;28;20047;-78
2023/05/12 15:01:20;;;;;;;5.75;3.08;;;;;;;;;;10400165;28;20115;-78
2023/05/12 15:06:23;;;;;;;6.72;2.97;;;;;;;;;;10396658;28;20041;-79
2023/05/12 15:11:26;;;;;;;6.90;3.53;;;;;;;;;;10397644;28;20046;-78
2023/05/12 15:16:30;;;;;;;7.23;3.00;;;;;;;;;;10399459;28;20343;-77
2023/05/12 15:21:33;;;;;;;5.57;2.90;;;;;;;;;;10396026;28;20049;-78
2023/05/12 15:26:38;;;;;;;6.05;2.95;;;;;;;;;;10398642;28;20577;-77
2023/05/12 15:31:44;;;;;;;5.57;2.75;;;;;;;;;;10412300;28;20155;-76
2023/05/12 15:36:47;;;;;;;7.18;2.90;;;;;;;;;;10397562;28;20033;-77
2023/05/12 15:41:50;;;;;;;5.93;3.10;;;;;;;;;;10393097;28;20057;-77
2023/05/12 15:46:54;;;;;;;6.72;3.38;;;;;;;;;;10394445;28;20045;-78
2023/05/12 15:51:57;;;;;;;9.10;3.80;;;;;;;;;;10388984;28;20052;-77
2023/05/12 15:57:00;;;;;;;8.00;3.60;;;;;;;;;;10389071;28;20049;-76
2023/05/12 16:02:04;;;;;;;7.05;3.10;;;;;;;;;;10388752;28;20045;-79
2023/05/12 16:07:07;;;;;;;5.53;2.95;;;;;;;;;;10403826;28;20470;-78
2023/05/12 16:12:10;;;;;;;9.50;3.53;;;;;;;;;;10408703;28;20091;-77
2023/05/12 16:17:15;;;;;;;6.60;3.00;;;;;;;;;;10401667;28;20041;-80
2023/05/12 16:22:17;;;;;;;5.82;3.22;;;;;;;;;;10412176;28;20071;-80
2023/05/12 16:27:20;;;;;;;5.70;3.40;;;;;;;;;;10411271;28;20045;-79
2023/05/12 16:32:24;;;;;;;6.53;3.08;;;;;;;;;;10405289;28;20055;-79
2023/05/12 16:37:27;;;;;;;5.28;2.67;;;;;;;;;;10409729;28;20132;-79
2023/05/12 16:42:29;;;;;;;3.45;2.00;;;;;;;;;;10416932;28;20426;-78
2023/05/12 16:47:34;;;;;;;3.70;2.22;;;;;;;;;;10409791;28;20033;-80
2023/05/12 16:52:37;;;;;;;1.92;1.60;;;;;;;;;;10414660;28;20033;-78
2023/05/12 16:57:40;;;;;;;3.47;1.90;;;;;;;;;;10410665;28;20053;-79
2023/05/12 17:02:46;;;;;;;2.97;1.98;;;;;;;;;;10409716;28;20033;-82
2023/05/12 17:07:49;;;;;;;3.13;2.05;;;;;;;;;;10406715;28;20042;-79
2023/05/12 17:12:51;;;;;;;1.90;1.42;;;;;;;;;;10406567;28;20052;-78
2023/05/12 17:17:55;;;;;;;5.90;2.17;;;;;;;;;;10402929;28;20037;-79
2023/05/12 17:22:58;;;;;;;2.70;1.90;;;;;;;;;;10400239;28;20037;-78
2023/05/12 17:28:01;;;;;;;4.47;1.93;;;;;;;;;;10398539;28;20612;-79
2023/05/12 17:33:07;;;;;;;6.80;2.55;;;;;;;;;;10402093;28;20564;-78
2023/05/12 17:38:15;;;;;;;3.50;2.25;;;;;;;;;;10402968;28;20469;-79
2023/05/12 17:43:21;;;;;;;3.20;2.15;;;;;;;;;;10403075;28;20046;-79
2023/05/12 17:48:25;;;;;;;3.43;2.13;;;;;;;;;;10402473;28;20091;-79
2023/05/12 17:53:29;;;;;;;2.72;2.03;;;;;;;;;;10398234;28;20080;-78
2023/05/12 17:58:32;;;;;;;2.95;1.77;;;;;;;;;;10399802;28;20042;-79
2023/05/12 18:03:36;;;;;;;5.17;2.27;;;;;;;;;;10396921;28;20034;-79
2023/05/12 18:08:40;;;;;;;4.53;2.00;;;;;;;;;;10393799;28;20059;-78
2023/05/12 18:13:42;;;;;;;4.40;2.33;;;;;;;;;;10395675;28;20525;-79
2023/05/12 18:18:47;;;;;;;4.18;2.30;;;;;;;;;;10398548;28;20049;-79
2023/05/12 18:23:51;;;;;;;4.05;1.80;;;;;;;;;;10402404;28;20375;-78
2023/05/12 18:28:53;;;;;;;2.77;1.80;;;;;;;;;;10388138;28;20042;-77
2023/05/12 18:33:57;;;;;;;3.25;2.30;;;;;;;;;;10390964;28;20037;-76
2023/05/12 18:39:01;;;;;;;3.10;2.08;;;;;;;;;;10407094;28;20520;-78
2023/05/12 18:44:14;;;;;;;3.50;2.30;;;;;;;;;;10411859;28;20414;-79
2023/05/12 18:49:18;;;;;;;3.17;2.10;;;;;;;;;;10394675;28;20500;-77
2023/05/12 18:54:41;;;;;;;4.70;2.17;;;;;;;;;;10395783;28;20037;-78
2023/05/12 19:00:06;;;;;;;4.72;1.95;;;;;;;;;;10396544;28;20529;-77
2023/05/12 19:05:31;;;;;;;4.43;2.13;;;;;;;;;;10392279;28;20140;-78
2023/05/12 19:10:54;;;;;;;4.03;2.25;;;;;;;;;;10396848;28;20052;-77
2023/05/12 19:16:17;;;;;;;4.35;1.92;;;;;;;;;;10390904;28;20052;-76
2023/05/12 19:21:42;;;;;;;4.10;2.33;;;;;;;;;;10397152;28;20041;-76
2023/05/12 19:27:05;;;;;;;5.05;2.42;;;;;;;;;;10393818;28;20053;-78
2023/05/12 19:32:33;;;;;;;3.28;2.40;;;;;;;;;;10372329;28;20045;-81
2023/05/12 19:37:57;;;;;;;4.53;2.78;;;;;;;;;;10381797;28;20514;-78
2023/05/12 19:43:20;;;;;;;5.25;2.72;;;;;;;;;;10388823;28;20497;-79
2023/05/12 19:48:43;;;;;;;3.83;2.20;;;;;;;;;;10391476;28;20061;-78
2023/05/12 19:54:08;;;;;;;4.25;2.95;;;;;;;;;;10386851;28;20049;-77
2023/05/12 19:59:31;;;;;;;4.97;2.63;;;;;;;;;;10387680;28;20057;-79
2023/05/12 20:04:54;;;;;;;6.10;3.53;;;;;;;;;;10387845;28;20033;-78
2023/05/12 20:09:59;;;;;;;5.95;3.40;;;;;;;;;;10379422;28;20057;-79
2023/05/12 20:15:03;;;;;;;5.40;2.85;;;;;;;;;;10388214;28;20046;-80
2023/05/12 20:20:07;;;;;;;5.88;3.13;;;;;;;;;;10391470;28;20037;-79
2023/05/12 20:25:14;;;;;;;7.20;3.40;;;;;;;;;;10389245;28;20030;-79
2023/05/12 20:30:17;;;;;;;6.55;3.65;;;;;;;;;;10386523;28;20064;-80
2023/05/12 20:35:20;;;;;;;5.72;3.53;;;;;;;;;;10392235;28;20032;-78
2023/05/12 20:40:24;;;;;;;5.75;3.55;;;;;;;;;;10391015;28;20525;-80
2023/05/12 20:45:26;;;;;;;;;;;;;;;;;;10388403;28;20057;-77
2023/05/12 20:50:29;;;;;;;6.45;3.55;;;;;;;;;;10391217;28;19921;-78
2023/05/12 20:55:34;;;;;;;6.55;3.22;;;;;;;;;;10398733;28;20044;-78
2023/05/12 21:00:47;;;;;;;;;;;;;;;;;;;;;
2023/05/12 21:05:49;;;;;;;7.03;4.10;;;;;;;;;;10400007;28;20048;-79
2023/05/12 21:10:53;;;;;;;6.72;3.80;;;;;;;;;;10396234;28;20049;-79
2023/05/12 21:15:56;;;;;;;;;;;;;;;;;;10399462;28;20045;-80
2023/05/12 21:20:59;;;;;;;7.50;3.78;;;;;;;;;;10396214;28;19933;-78
2023/05/12 21:26:03;;;;;;;6.78;3.97;;;;;;;;;;10400679;28;20537;-80
2023/05/12 21:31:06;;;;;;;5.88;3.58;;;;;;;;;;10402961;28;20043;-77
2023/05/12 21:36:08;;;;;;;7.70;3.92;;;;;;;;;;10397752;28;20052;-77
2023/05/12 21:41:37;;;;;;;;;;;;;;;;;;;;;
2023/05/12 21:46:40;;;;;;;5.55;3.22;;;;;;;;;;10406042;28;20029;-77
2023/05/12 21:51:42;;;;;;;4.97;3.25;;;;;;;;;;10408828;28;20049;-77
2023/05/12 21:56:49;;;;;;;3.95;2.78;;;;;;;;;;10400330;28;20033;-76
2023/05/12 22:01:52;;;;;;;6.57;3.53;;;;;;;;;;10402965;28;20121;-76
2023/05/12 22:06:55;;;;;;;5.33;3.10;;;;;;;;;;10403050;28;20037;-76
2023/05/12 22:11:59;;;;;;;5.20;2.75;;;;;;;;;;10402925;28;20137;-76
2023/05/12 22:17:02;;;;;;;4.32;2.70;;;;;;;;;;10399126;28;20458;-76
2023/05/12 22:22:05;;;;;;;5.67;2.73;;;;;;;;;;10399483;28;20621;-76
2023/05/12 22:27:09;;;;;;;4.90;3.33;;;;;;;;;;10404130;28;20038;-75
2023/05/12 22:32:12;;;;;;;6.22;3.22;;;;;;;;;;10401724;28;20407;-76
2023/05/12 22:37:16;;;;;;;4.95;2.67;;;;;;;;;;10400524;28;20107;-76
2023/05/12 22:42:20;;;;;;;5.00;2.73;;;;;;;;;;10403336;28;20045;-76
2023/05/12 22:47:23;;;;;;;5.18;2.92;;;;;;;;;;10397392;28;20339;-76
2023/05/12 22:52:26;;;;;;;5.57;3.25;;;;;;;;;;10400381;28;20171;-76
2023/05/12 22:57:30;;;;;;;5.72;2.75;;;;;;;;;;10399932;28;20056;-78
2023/05/12 23:02:33;;;;;;;6.65;3.58;;;;;;;;;;10399544;28;20045;-76
2023/05/12 23:07:36;;;;;;;6.97;3.50;;;;;;;;;;10399090;28;20103;-76
2023/05/12 23:12:41;;;;;;;8.80;3.95;;;;;;;;;;10400749;28;20045;-76
2023/05/12 23:17:44;;;;;;;8.50;4.10;;;;;;;;;;10397345;28;20042;-75
2023/05/12 23:22:46;;;;;;;7.72;3.67;;;;;;;;;;10400888;28;20073;-76
2023/05/12 23:27:51;;;;;;;8.27;4.30;;;;;;;;;;10400733;28;20045;-77
2023/05/12 23:32:53;;;;;;;6.40;3.17;;;;;;;;;;10398938;28;20417;-75
2023/05/12 23:37:56;;;;;;;6.72;3.55;;;;;;;;;;10396206;28;20068;-76
2023/05/12 23:43:00;;;;;;;10.00;3.85;;;;;;;;;;10396534;28;20498;-75
2023/05/12 23:48:03;;;;;;;9.52;4.43;;;;;;;;;;10397811;28;20395;-76
2023/05/12 23:53:06;;;;;;;8.73;4.50;;;;;;;;;;10395604;28;20049;-76
2023/05/12 23:58:11;;;;;;;8.37;4.23;;;;;;;;;;10393543;28;20034;-76
